Time;durP1;ratioP1;P1;durP2;ratioP2;P2;SDS_P1;SDS_P2;PMS_P1;PMS_P2;Temp;Humidity;BMP_temperature;BMP_pressure;BME280_temperature;BME280_humidity;BME280_pressure;Samples;Min_cycle;Max_cycle;Signal;HPM_P1;HPM_P2
2022/02/03 00:02:25;;;;;;;1.08;0.52;;;9.20;75.90;;;;;;5038123;28;19905;-50
2022/02/03 00:07:27;;;;;;;3.25;0.70;;;9.10;77.50;;;;;;5037971;28;20515;-53
2022/02/03 00:10:22;;;;;;;2.15;0.77;;;9.10;77.60;;;;;;5037862;28;20029;-50
2022/02/03 00:24:10;;;;;;;1.45;0.30;;;9.00;78.00;;;;;;5037662;28;20039;-50
2022/02/03 00:26:43;;;;;;;1.85;0.57;;;8.90;80.60;;;;;;5037247;28;20136;-50
2022/02/03 00:29:18;;;;;;;2.00;0.50;;;8.80;78.30;;;;;;5037758;28;20025;-51
2022/02/03 00:32:06;;;;;;;0.98;0.40;;;8.80;77.30;;;;;;5037490;28;20036;-50
2022/02/03 00:37:44;;;;;;;0.30;0.30;;;8.80;78.70;;;;;;5053190;28;20112;-51
2022/02/03 00:48:33;;;;;;;1.92;0.50;;;8.80;77.60;;;;;;5037521;28;20037;-51
2022/02/03 00:51:00;;;;;;;1.17;0.45;;;8.80;78.90;;;;;;5037375;28;20028;-55
2022/02/03 00:53:26;;;;;;;1.33;0.30;;;8.80;78.60;;;;;;5037321;28;20030;-54
2022/02/03 00:55:55;;;;;;;1.73;0.32;;;8.80;78.60;;;;;;5038560;28;20461;-51
2022/02/03 00:58:25;;;;;;;3.63;0.50;;;8.80;78.60;;;;;;5041565;28;20037;-52
2022/02/03 01:00:54;;;;;;;1.85;0.50;;;8.80;79.50;;;;;;5041271;28;20076;-49
2022/02/03 01:03:28;;;;;;;0.82;0.20;;;8.80;78.80;;;;;;5041462;28;20385;-51
2022/02/03 01:05:58;;;;;;;10.82;0.85;;;8.90;79.10;;;;;;5041462;28;20109;-55
2022/02/03 01:08:27;;;;;;;1.25;0.35;;;8.90;82.70;;;;;;5041000;28;20559;-53
2022/02/03 01:11:04;;;;;;;4.32;0.50;;;8.90;80.20;;;;;;5041179;28;20026;-51
2022/02/03 01:13:52;;;;;;;2.10;0.50;;;8.80;82.20;;;;;;5041274;28;20030;-53
2022/02/03 01:19:22;;;;;;;1.50;0.22;;;8.80;82.50;;;;;;5041115;28;20116;-51
2022/02/03 01:43:38;;;;;;;0.10;0.10;;;8.90;83.20;;;;;;5041033;28;20397;-52
2022/02/03 01:46:13;;;;;;;3.50;0.27;;;8.90;83.20;;;;;;5040351;28;20036;-49
2022/02/03 01:49:03;;;;;;;1.20;0.75;;;8.90;82.30;;;;;;5040195;28;20268;-55
2022/02/03 01:51:48;;;;;;;4.85;0.40;;;8.90;81.70;;;;;;5040197;28;20069;-50
2022/02/03 01:54:16;;;;;;;0.70;0.20;;;9.00;83.30;;;;;;5040114;28;20083;-50
2022/02/03 01:57:11;;;;;;;3.80;0.77;;;8.90;82.60;;;;;;5040254;28;20367;-52
2022/02/03 01:59:40;;;;;;;2.50;0.30;;;9.00;82.40;;;;;;5040413;28;20021;-54
2022/02/03 02:02:07;;;;;;;1.40;0.30;;;9.00;81.60;;;;;;5039956;28;20036;-50
2022/02/03 02:05:05;;;;;;;1.95;0.20;;;9.00;82.50;;;;;;5040533;28;20030;-53
2022/02/03 02:07:37;;;;;;;4.03;0.40;;;9.00;81.30;;;;;;5037447;28;20044;-52
2022/02/03 02:13:19;;;;;;;2.85;0.32;;;9.00;81.90;;;;;;5040395;28;20030;-51
2022/02/03 02:43:46;;;;;;;3.53;0.50;;;8.90;84.70;;;;;;5039290;28;20028;-50
2022/02/03 02:46:21;;;;;;;2.65;0.20;;;8.90;85.60;;;;;;5039356;28;20025;-51
2022/02/03 02:48:59;;;;;;;0.73;0.30;;;8.90;83.70;;;;;;5039512;28;20100;-51
2022/02/03 02:51:33;;;;;;;2.05;0.40;;;8.90;85.20;;;;;;5039083;28;20109;-52
2022/02/03 03:30:47;;;;;;;4.80;0.45;;;8.70;86.10;;;;;;5038998;28;20134;-49
2022/02/03 03:35:59;;;;;;;6.53;1.17;;;8.70;86.10;;;;;;5038730;28;20022;-49
2022/02/03 03:38:29;;;;;;;3.22;0.60;;;8.70;86.40;;;;;;5038619;28;20030;-53
2022/02/03 03:40:57;;;;;;;14.07;1.10;;;8.70;85.40;;;;;;5038123;28;20100;-51
2022/02/03 03:43:29;;;;;;;7.57;0.95;;;8.70;85.90;;;;;;5038289;28;20033;-54
2022/02/03 03:45:56;;;;;;;2.47;0.65;;;8.80;85.60;;;;;;5038365;28;20132;-55
2022/02/03 03:48:31;;;;;;;7.38;0.60;;;8.70;87.40;;;;;;5038201;28;20026;-50
2022/02/03 03:51:02;;;;;;;5.93;0.70;;;8.80;87.60;;;;;;5038108;28;20132;-52
2022/02/03 03:53:38;;;;;;;6.70;0.60;;;8.90;86.20;;;;;;5038091;28;20060;-52
2022/02/03 03:56:14;;;;;;;3.28;0.40;;;8.90;85.50;;;;;;5037839;28;20442;-51
2022/02/03 05:03:11;;;;;;;1.30;0.47;;;9.10;87.00;;;;;;5037338;28;20037;-55
2022/02/03 05:08:56;;;;;;;1.63;0.40;;;9.20;86.60;;;;;;5037339;28;20053;-55
2022/02/03 05:12:07;;;;;;;3.58;0.40;;;9.20;85.30;;;;;;5037387;28;20029;-55
2022/02/03 05:42:06;;;;;;;1.15;0.50;;;9.20;86.50;;;;;;5037952;28;20057;-51
2022/02/03 05:50:33;;;;;;;10.55;0.82;;;9.20;87.60;;;;;;5041122;28;20025;-50
2022/02/03 06:27:27;;;;;;;3.03;0.50;;;8.70;88.30;;;;;;5040015;28;20029;-52
2022/02/03 06:29:56;;;;;;;11.27;1.65;;;8.70;87.00;;;;;;5040066;28;20056;-49
2022/02/03 06:32:25;;;;;;;50.78;4.75;;;8.80;87.10;;;;;;5039838;28;20516;-49
2022/02/03 06:34:51;;;;;;;30.25;2.88;;;8.70;88.20;;;;;;5040199;28;20072;-53
2022/02/03 06:37:21;;;;;;;13.90;2.40;;;8.80;88.10;;;;;;5040236;28;20077;-49
2022/02/03 06:39:46;;;;;;;15.25;2.78;;;8.80;88.10;;;;;;5039921;28;20028;-53
2022/02/03 06:42:12;;;;;;;11.52;2.60;;;8.80;88.90;;;;;;5039733;28;20026;-51
2022/02/03 06:44:49;;;;;;;29.67;3.92;;;8.80;87.80;;;;;;5039843;28;20040;-53
2022/02/03 06:47:30;;;;;;;32.08;5.78;;;8.80;88.90;;;;;;5039670;28;20032;-52
2022/02/03 06:50:09;;;;;;;32.38;4.10;;;8.90;88.30;;;;;;5039633;28;20108;-52
2022/02/03 06:55:12;;;;;;;46.90;4.25;;;8.90;88.00;;;;;;5039176;28;20068;-52
2022/02/03 06:57:54;;;;;;;8.48;1.52;;;8.90;88.80;;;;;;5039479;28;20048;-53
2022/02/03 07:00:37;;;;;;;11.50;1.42;;;8.90;87.90;;;;;;5039413;28;20030;-54
2022/02/03 07:03:11;;;;;;;11.32;1.83;;;8.90;88.30;;;;;;5039310;28;20032;-52
2022/02/03 07:05:36;;;;;;;4.10;1.10;;;8.90;88.60;;;;;;5039365;28;20038;-52
2022/02/03 07:08:02;;;;;;;12.38;1.48;;;8.90;87.70;;;;;;5039653;28;20108;-55
2022/02/03 07:10:28;;;;;;;28.95;2.20;;;8.90;89.00;;;;;;5039654;28;20033;-53
2022/02/03 07:12:57;;;;;;;34.90;2.85;;;8.90;87.50;;;;;;5039041;28;20029;-51
2022/02/03 07:15:23;;;;;;;6.38;1.25;;;8.90;88.80;;;;;;5038908;28;20029;-50
2022/02/03 07:17:49;;;;;;;14.40;1.33;;;8.90;88.00;;;;;;5039227;28;20040;-52
2022/02/03 07:20:15;;;;;;;17.65;1.98;;;9.00;87.50;;;;;;5038985;28;20018;-49
2022/02/03 07:22:42;;;;;;;8.48;1.10;;;9.00;87.60;;;;;;5038780;28;20052;-57
2022/02/03 07:25:08;;;;;;;25.02;3.05;;;9.00;88.00;;;;;;5038966;28;20060;-51
2022/02/03 07:27:34;;;;;;;5.75;0.98;;;8.90;88.40;;;;;;5038831;28;20103;-53
2022/02/03 07:30:00;;;;;;;4.55;1.40;;;8.90;88.90;;;;;;5039146;28;20033;-52
2022/02/03 07:32:26;;;;;;;5.90;1.23;;;9.00;88.70;;;;;;5038611;28;20029;-55
2022/02/03 07:34:56;;;;;;;5.38;1.30;;;9.00;88.30;;;;;;5037299;28;20025;-51
2022/02/03 07:37:27;;;;;;;3.58;1.08;;;9.00;87.80;;;;;;5038466;28;20561;-55
2022/02/03 07:39:53;;;;;;;8.85;1.60;;;9.00;87.60;;;;;;5037779;28;20018;-56
2022/02/03 07:42:19;;;;;;;2.53;1.15;;;9.00;87.90;;;;;;5037876;28;20083;-54
2022/02/03 07:44:45;;;;;;;6.68;1.55;;;9.10;87.20;;;;;;5038096;28;20108;-52
2022/02/03 07:47:11;;;;;;;8.88;1.50;;;9.10;87.20;;;;;;5038124;28;20045;-54
2022/02/03 07:49:37;;;;;;;3.45;0.95;;;9.10;87.80;;;;;;5038176;28;20077;-55
2022/02/03 07:52:04;;;;;;;2.45;0.90;;;9.10;87.90;;;;;;5038040;28;20389;-53
2022/02/03 07:54:31;;;;;;;1.25;0.55;;;9.00;88.70;;;;;;5037852;28;20028;-54
2022/02/03 07:57:01;;;;;;;2.85;0.82;;;9.10;88.80;;;;;;5037737;28;20532;-52
2022/02/03 07:59:27;;;;;;;6.28;1.27;;;9.10;88.50;;;;;;5038045;28;20056;-51
2022/02/03 08:01:54;;;;;;;1.05;0.50;;;9.20;88.60;;;;;;5037476;28;20025;-55
2022/02/03 08:04:24;;;;;;;1.98;0.55;;;9.20;88.10;;;;;;5037469;28;20393;-52
2022/02/03 08:06:49;;;;;;;1.23;0.50;;;9.20;87.60;;;;;;5037145;28;20037;-54
2022/02/03 08:09:24;;;;;;;4.00;0.95;;;9.30;88.20;;;;;;5037602;28;20599;-52
2022/02/03 08:11:52;;;;;;;1.25;0.60;;;9.30;87.90;;;;;;5037753;28;20025;-55
2022/02/03 08:14:29;;;;;;;2.17;0.70;;;9.30;87.20;;;;;;5037547;28;20048;-55
2022/02/03 08:17:01;;;;;;;1.85;1.00;;;9.30;87.10;;;;;;5037352;28;20378;-50
2022/02/03 08:22:22;;;;;;;1.85;0.98;;;9.40;87.20;;;;;;5037433;28;20104;-54
2022/02/03 08:24:52;;;;;;;1.20;0.50;;;9.40;87.30;;;;;;5037255;28;20448;-55
2022/02/03 08:33:05;;;;;;;0.93;0.30;;;9.50;86.30;;;;;;5054995;28;20505;-53
2022/02/03 08:35:51;;;;;;;0.93;0.32;;;9.50;86.80;;;;;;5035068;28;20093;-55
2022/02/03 08:38:32;;;;;;;0.80;0.70;;;9.50;86.20;;;;;;5036854;28;20543;-54
2022/02/03 08:41:01;;;;;;;3.78;1.40;;;9.60;87.50;;;;;;5037213;28;20080;-54
2022/02/03 08:43:32;;;;;;;5.82;2.20;;;9.60;87.40;;;;;;5037714;28;20036;-50
2022/02/03 08:46:00;;;;;;;5.28;2.08;;;9.60;86.40;;;;;;5037626;28;20017;-55
2022/02/03 08:48:26;;;;;;;1.95;0.93;;;9.70;86.30;;;;;;5037833;28;20033;-53
2022/02/03 08:50:53;;;;;;;1.23;0.40;;;9.70;86.30;;;;;;5037597;28;20025;-53
2022/02/03 08:53:26;;;;;;;0.95;0.20;;;9.70;86.00;;;;;;5037718;28;20157;-55
2022/02/03 09:53:52;;;;;;;0.65;0.50;;;10.60;84.20;;;;;;5049060;28;20042;-54
2022/02/03 09:58:54;;;;;;;0.60;0.20;;;10.60;84.10;;;;;;5041162;28;20461;-52
2022/02/03 10:01:40;;;;;;;1.88;0.30;;;10.60;84.30;;;;;;5040553;28;20033;-51
2022/02/03 10:04:17;;;;;;;0.95;0.30;;;10.60;84.60;;;;;;5040697;28;20048;-53
2022/02/03 10:06:54;;;;;;;2.33;0.50;;;10.70;84.90;;;;;;5040345;28;20037;-50
2022/02/03 10:09:40;;;;;;;1.67;0.20;;;10.80;84.30;;;;;;5040395;28;20113;-51
2022/02/03 10:12:07;;;;;;;1.45;0.30;;;10.80;84.50;;;;;;5040564;28;20025;-52
2022/02/03 10:14:35;;;;;;;0.68;0.20;;;10.90;84.00;;;;;;5040376;28;20033;-49
2022/02/03 10:17:03;;;;;;;0.35;0.30;;;11.00;83.50;;;;;;5040227;28;20029;-51
2022/02/03 10:19:37;;;;;;;1.60;0.30;;;10.90;82.80;;;;;;5040331;28;20033;-49
2022/02/03 10:22:16;;;;;;;4.57;0.40;;;10.90;82.90;;;;;;5038643;28;20045;-51
2022/02/03 10:24:45;;;;;;;0.68;0.30;;;10.90;83.20;;;;;;5039902;28;20444;-52
2022/02/03 10:27:28;;;;;;;0.20;0.20;;;10.90;83.50;;;;;;5040268;28;20040;-53
2022/02/03 10:30:23;;;;;;;0.45;0.20;;;10.90;83.50;;;;;;5039417;28;20026;-49
2022/02/03 10:32:50;;;;;;;0.98;0.20;;;11.00;83.70;;;;;;5039922;28;20084;-50
2022/02/03 11:06:06;;;;;;;1.77;0.43;;;11.00;85.00;;;;;;5039653;28;20591;-54
2022/02/03 11:08:33;;;;;;;2.17;0.50;;;11.10;85.00;;;;;;5039072;28;20048;-51
2022/02/03 11:11:02;;;;;;;0.55;0.20;;;11.10;84.80;;;;;;5039255;28;20025;-52
2022/02/03 11:13:32;;;;;;;2.00;0.32;;;11.10;84.80;;;;;;5039245;28;20029;-49
2022/02/03 11:16:06;;;;;;;1.88;0.28;;;11.20;84.90;;;;;;5039275;28;20056;-52
2022/02/03 11:18:34;;;;;;;2.03;0.30;;;11.20;84.50;;;;;;5039146;28;20032;-54
2022/02/03 11:21:01;;;;;;;0.20;0.20;;;11.20;84.20;;;;;;5038830;28;20481;-50
2022/02/03 11:26:09;;;;;;;0.85;0.30;;;11.10;84.50;;;;;;5039199;28;20698;-51
2022/02/03 11:48:50;;;;;;;2.80;0.50;;;11.40;85.50;;;;;;5038758;28;20033;-49
2022/02/03 11:54:00;;;;;;;2.83;0.68;;;11.40;85.70;;;;;;5038752;28;20025;-53
2022/02/03 12:16:28;;;;;;;1.88;0.70;;;11.40;85.50;;;;;;5037907;28;20018;-48
2022/02/03 12:21:50;;;;;;;2.00;0.52;;;11.30;86.00;;;;;;5038156;28;20041;-49
2022/02/03 12:24:35;;;;;;;2.00;0.85;;;11.40;85.50;;;;;;5037695;28;20497;-51
2022/02/03 12:27:24;;;;;;;2.83;0.90;;;11.40;85.60;;;;;;5038077;28;20022;-50
2022/02/03 12:30:02;;;;;;;7.65;2.40;;;11.50;85.40;;;;;;5037689;28;20374;-51
2022/02/03 12:38:21;;;;;;;2.70;0.70;;;11.60;85.50;;;;;;5037822;28;20031;-49
2022/02/03 12:40:57;;;;;;;6.03;0.90;;;11.60;85.70;;;;;;5037787;28;20025;-53
2022/02/03 12:43:30;;;;;;;9.50;1.40;;;11.60;85.20;;;;;;5037490;28;20030;-49
2022/02/03 12:45:56;;;;;;;3.53;1.00;;;11.50;85.60;;;;;;5037661;28;20105;-54
2022/02/03 12:48:26;;;;;;;2.35;1.30;;;11.60;85.50;;;;;;5037821;28;20565;-54
2022/02/03 12:50:54;;;;;;;6.95;2.20;;;11.60;85.80;;;;;;5038456;28;20079;-51
2022/02/03 12:53:21;;;;;;;5.85;1.90;;;11.60;85.90;;;;;;5043855;28;20034;-53
2022/02/03 12:55:51;;;;;;;3.25;1.40;;;11.70;86.10;;;;;;5043581;28;20030;-55
2022/02/03 12:58:24;;;;;;;4.32;1.38;;;11.70;85.70;;;;;;5043737;28;20100;-52
2022/02/03 13:00:59;;;;;;;7.82;1.20;;;11.70;85.40;;;;;;5044094;28;20051;-53
2022/02/03 13:03:35;;;;;;;3.03;1.30;;;11.70;85.30;;;;;;5044101;28;20021;-53
2022/02/03 13:06:05;;;;;;;3.17;1.02;;;11.80;85.60;;;;;;5043962;28;20048;-55
2022/02/03 13:08:45;;;;;;;3.63;1.23;;;11.80;85.20;;;;;;5044729;28;20144;-52
2022/02/03 13:11:21;;;;;;;3.45;1.08;;;11.90;84.90;;;;;;5044544;28;20477;-50
2022/02/03 13:14:05;;;;;;;4.03;1.17;;;11.90;85.00;;;;;;5044014;28;20036;-53
2022/02/03 13:16:32;;;;;;;3.78;1.00;;;11.90;84.90;;;;;;5043778;28;20025;-49
2022/02/03 13:19:12;;;;;;;3.67;1.10;;;11.90;84.90;;;;;;5044057;28;20085;-50
2022/02/03 13:22:02;;;;;;;3.60;1.13;;;12.00;84.70;;;;;;5043769;28;20137;-51
2022/02/03 13:27:23;;;;;;;2.40;0.93;;;12.10;84.70;;;;;;5052167;28;20041;-50
2022/02/03 13:32:31;;;;;;;2.30;0.70;;;12.30;83.60;;;;;;5043657;28;20033;-54
2022/02/03 13:35:04;;;;;;;2.63;0.60;;;12.30;82.60;;;;;;5043905;28;20048;-51
2022/02/03 13:37:38;;;;;;;1.67;0.70;;;12.30;82.40;;;;;;5043612;28;20384;-55
2022/02/03 13:40:06;;;;;;;2.95;1.48;;;12.30;82.40;;;;;;5044115;28;20100;-50
2022/02/03 13:42:32;;;;;;;2.58;1.30;;;12.30;81.50;;;;;;5043960;28;20061;-55
2022/02/03 13:45:03;;;;;;;3.15;1.73;;;12.30;82.50;;;;;;5043782;28;20021;-53
2022/02/03 13:47:34;;;;;;;4.28;1.50;;;12.30;82.90;;;;;;5043938;28;20112;-52
2022/02/03 13:50:05;;;;;;;5.40;2.00;;;12.30;82.90;;;;;;5043718;28;20035;-54
2022/02/03 13:53:18;;;;;;;3.05;0.90;;;12.40;83.00;;;;;;5043616;28;20025;-53
2022/02/03 14:21:27;;;;;;;2.33;0.93;;;15.40;71.70;;;;;;5039867;28;20029;-52
2022/02/03 14:29:15;;;;;;;25.00;11.90;;;14.80;72.80;;;;;;5039871;28;20447;-53
2022/02/03 14:31:42;;;;;;;12.80;5.25;;;14.40;72.60;;;;;;5040139;28;20036;-49
2022/02/03 14:34:21;;;;;;;3.22;1.33;;;14.00;72.30;;;;;;5040144;28;20028;-49
2022/02/03 14:36:57;;;;;;;6.63;3.00;;;13.70;74.30;;;;;;5040618;28;20030;-52
2022/02/03 14:39:35;;;;;;;9.50;3.50;;;13.40;74.00;;;;;;5039668;28;20029;-53
2022/02/03 14:42:01;;;;;;;9.73;3.47;;;13.00;75.10;;;;;;5039597;28;20029;-54
2022/02/03 14:44:27;;;;;;;4.80;1.83;;;12.80;75.60;;;;;;5039992;28;20025;-53
2022/02/03 14:46:53;;;;;;;24.45;11.95;;;12.50;76.40;;;;;;5040026;28;20036;-52
2022/02/03 14:49:18;;;;;;;20.55;9.73;;;12.40;76.30;;;;;;5039875;28;20029;-55
2022/02/03 14:51:52;;;;;;;11.48;4.85;;;12.40;77.10;;;;;;5039519;28;20033;-50
2022/02/03 14:59:34;;;;;;;12.18;5.68;;;12.50;77.00;;;;;;5039719;28;20033;-52
2022/02/03 15:02:06;;;;;;;12.55;5.85;;;12.50;77.00;;;;;;5039779;28;20465;-51
2022/02/03 15:04:32;;;;;;;38.22;22.90;;;12.50;77.30;;;;;;5039469;28;20033;-53
2022/02/03 15:07:01;;;;;;;7.68;3.97;;;12.50;77.10;;;;;;5039782;28;20473;-52
2022/02/03 15:12:37;;;;;;;3.22;1.15;;;12.40;77.00;;;;;;5038361;28;20029;-55
2022/02/03 15:15:04;;;;;;;2.37;1.50;;;12.50;77.00;;;;;;5038326;28;20029;-54
2022/02/03 15:17:33;;;;;;;2.85;1.63;;;12.60;77.20;;;;;;5038294;28;20039;-55
2022/02/03 15:19:59;;;;;;;11.48;7.03;;;12.70;76.70;;;;;;5038429;28;20535;-51
2022/02/03 15:22:25;;;;;;;2.08;1.02;;;12.80;75.40;;;;;;5038529;28;20057;-51
2022/02/03 15:24:51;;;;;;;1.70;0.90;;;12.80;72.50;;;;;;5038800;28;20029;-55
2022/02/03 15:27:18;;;;;;;4.47;2.20;;;12.70;72.70;;;;;;5038570;28;20021;-53
2022/02/03 15:29:49;;;;;;;6.45;3.45;;;12.70;73.20;;;;;;5038560;28;20033;-50
2022/02/03 15:32:16;;;;;;;5.20;2.47;;;12.60;72.80;;;;;;5038435;28;20037;-52
2022/02/03 15:34:42;;;;;;;2.38;1.27;;;12.50;73.70;;;;;;5038579;28;20033;-54
2022/02/03 15:37:15;;;;;;;3.90;1.92;;;12.50;74.90;;;;;;5038487;28;20462;-51
2022/02/03 15:39:48;;;;;;;0.93;0.82;;;12.50;75.00;;;;;;5038450;28;20032;-49
2022/02/03 15:42:18;;;;;;;4.00;2.70;;;12.40;75.10;;;;;;5038396;28;20030;-52
2022/02/03 15:44:47;;;;;;;4.30;1.63;;;12.40;74.80;;;;;;5038484;28;20025;-54
2022/02/03 15:47:26;;;;;;;8.70;5.97;;;12.50;75.80;;;;;;5038051;28;20037;-54
2022/02/03 16:01:08;;;;;;;15.05;6.70;;;12.20;76.30;;;;;;5038247;28;20381;-53
2022/02/03 16:15:04;;;;;;;6.60;3.05;;;11.90;76.70;;;;;;5038011;28;20040;-53
2022/02/03 16:17:04;;;;;;;4.75;2.08;;;11.90;76.10;;;;;;5037544;28;20036;-51
2022/02/03 16:19:45;;;;;;;13.60;7.85;;;11.70;76.00;;;;;;5037731;28;20087;-54
2022/02/03 16:25:09;;;;;;;12.20;7.20;;;11.60;76.70;;;;;;5045675;28;20041;-51
2022/02/03 16:54:41;;;;;;;6.72;3.20;;;11.60;77.90;;;;;;5036433;28;20025;-55
2022/02/03 16:57:15;;;;;;;9.20;4.65;;;11.60;76.90;;;;;;5037274;28;20144;-53
2022/02/03 16:59:54;;;;;;;7.35;3.85;;;11.50;77.30;;;;;;5037694;28;20049;-53
2022/02/03 17:02:20;;;;;;;9.88;5.43;;;11.50;78.10;;;;;;5037252;28;20089;-55
2022/02/03 17:04:46;;;;;;;9.57;5.30;;;11.50;78.00;;;;;;5037241;28;20487;-51
2022/02/03 17:07:12;;;;;;;12.10;6.88;;;11.50;77.80;;;;;;5037537;28;20473;-54
2022/02/03 17:09:39;;;;;;;12.32;7.20;;;11.50;78.10;;;;;;5037064;28;20031;-53
2022/02/03 17:12:07;;;;;;;16.73;10.93;;;11.40;77.90;;;;;;5037046;28;20374;-54
2022/02/03 17:14:34;;;;;;;15.05;9.70;;;11.40;78.40;;;;;;5037372;28;20014;-55
2022/02/03 17:16:59;;;;;;;12.32;9.05;;;11.50;78.50;;;;;;5036921;28;20028;-51
2022/02/03 17:19:25;;;;;;;11.95;7.90;;;11.40;78.50;;;;;;5036797;28;20037;-54
2022/02/03 17:21:51;;;;;;;12.80;8.27;;;11.40;78.40;;;;;;5037056;28;20048;-53
2022/02/03 17:24:17;;;;;;;14.15;10.85;;;11.40;78.70;;;;;;5036951;28;20021;-51
2022/02/03 17:27:20;;;;;;;13.30;9.35;;;11.50;78.90;;;;;;5037073;28;20129;-52
2022/02/03 18:18:17;;;;;;;23.17;14.93;;;11.00;78.60;;;;;;5040012;28;20104;-53
2022/02/03 18:54:23;;;;;;;10.38;8.40;;;10.90;78.40;;;;;;5039630;28;20029;-53
2022/02/03 18:57:05;;;;;;;10.65;8.45;;;10.80;78.30;;;;;;5039284;28;20033;-51
2022/02/03 19:15:49;;;;;;;9.45;5.32;;;10.70;79.40;;;;;;5038978;28;20052;-56
2022/02/03 19:21:35;;;;;;;6.88;3.38;;;10.70;79.50;;;;;;5039019;28;20048;-55
2022/02/03 19:26:37;;;;;;;5.15;2.70;;;10.60;79.60;;;;;;5018730;28;20084;-55
2022/02/03 19:57:17;;;;;;;3.67;2.17;;;10.60;80.30;;;;;;5018946;28;20032;-52
2022/02/03 20:07:54;;;;;;;10.77;4.47;;;10.60;80.40;;;;;;5023085;28;20027;-50
2022/02/03 20:10:26;;;;;;;15.48;9.80;;;10.60;80.00;;;;;;5018465;28;20026;-53
2022/02/03 20:12:52;;;;;;;14.10;8.70;;;10.60;80.30;;;;;;5018361;28;20041;-54
2022/02/03 20:15:21;;;;;;;14.32;9.23;;;10.60;80.10;;;;;;5018549;28;20469;-53
2022/02/03 20:17:47;;;;;;;11.75;6.40;;;10.60;80.20;;;;;;5018495;28;20018;-53
2022/02/03 20:20:13;;;;;;;11.80;8.88;;;10.60;80.10;;;;;;5018091;28;20386;-53
2022/02/03 20:22:40;;;;;;;12.25;7.85;;;10.60;80.00;;;;;;5031750;28;20045;-54
2022/02/03 20:25:07;;;;;;;10.27;5.90;;;10.60;80.00;;;;;;5037890;28;20401;-50
2022/02/03 20:27:33;;;;;;;9.45;6.43;;;10.50;80.00;;;;;;5038128;28;20030;-51
2022/02/03 20:30:00;;;;;;;7.13;3.55;;;10.60;79.70;;;;;;5037913;28;20103;-55
2022/02/03 20:32:29;;;;;;;14.90;8.65;;;10.60;79.50;;;;;;5037730;28;20493;-53
2022/02/03 20:34:56;;;;;;;9.75;4.95;;;10.60;79.70;;;;;;5036437;28;20064;-53
2022/02/03 20:37:22;;;;;;;11.43;5.90;;;10.50;79.40;;;;;;5037964;28;20045;-55
2022/02/03 20:39:48;;;;;;;7.30;2.92;;;10.60;78.80;;;;;;5038049;28;20380;-50
2022/02/03 20:42:16;;;;;;;4.70;2.47;;;10.50;77.10;;;;;;5037914;28;20025;-52
2022/02/03 20:44:45;;;;;;;6.53;3.63;;;10.50;77.70;;;;;;5037693;28;20029;-52
2022/02/03 20:47:11;;;;;;;12.85;7.70;;;10.50;77.90;;;;;;5037674;28;20056;-52
2022/02/03 20:49:37;;;;;;;13.65;7.63;;;10.50;78.30;;;;;;5037657;28;20029;-53
2022/02/03 20:52:04;;;;;;;13.75;7.85;;;10.50;78.20;;;;;;5037601;28;20053;-52
2022/02/03 20:54:29;;;;;;;13.52;7.07;;;10.40;78.00;;;;;;5038066;28;20049;-50
2022/02/03 20:56:57;;;;;;;11.68;7.38;;;10.40;78.10;;;;;;5037769;28;20024;-51
2022/02/03 20:59:28;;;;;;;9.45;4.93;;;10.50;78.60;;;;;;5037787;28;20017;-55
2022/02/03 21:01:56;;;;;;;8.50;5.47;;;10.40;78.40;;;;;;5037549;28;20047;-51
2022/02/03 21:04:35;;;;;;;10.50;6.93;;;10.40;77.40;;;;;;5037323;28;20477;-53
2022/02/03 21:07:03;;;;;;;8.02;4.00;;;10.40;78.30;;;;;;5037945;28;20477;-55
2022/02/03 21:09:29;;;;;;;8.35;3.97;;;10.50;78.00;;;;;;5037690;28;20156;-52
2022/02/03 21:11:54;;;;;;;6.95;3.85;;;10.50;77.70;;;;;;5037403;28;20059;-55
2022/02/03 21:14:20;;;;;;;10.95;4.97;;;10.40;78.10;;;;;;5041340;28;20029;-51
2022/02/03 21:16:51;;;;;;;8.48;4.43;;;10.40;78.40;;;;;;5040727;28;20033;-55
2022/02/03 21:19:17;;;;;;;10.05;4.18;;;10.40;78.00;;;;;;5041357;28;20025;-55
2022/02/03 21:21:43;;;;;;;12.60;6.45;;;10.40;78.30;;;;;;5040954;28;20413;-53
2022/02/03 21:24:08;;;;;;;7.60;3.40;;;10.40;78.30;;;;;;5041340;28;20026;-53
2022/02/03 21:26:38;;;;;;;4.68;2.47;;;10.40;78.00;;;;;;5041257;28;20025;-54
2022/02/03 21:29:05;;;;;;;6.10;3.13;;;10.40;77.80;;;;;;5041165;28;20087;-55
2022/02/03 21:31:31;;;;;;;7.45;2.92;;;10.40;78.00;;;;;;5041114;28;20025;-50
2022/02/03 21:33:57;;;;;;;3.83;2.03;;;10.40;77.80;;;;;;5040989;28;20393;-51
2022/02/03 21:36:26;;;;;;;7.28;2.05;;;10.40;77.20;;;;;;5041276;28;20026;-51
2022/02/03 21:38:52;;;;;;;6.22;1.88;;;10.40;76.30;;;;;;5039750;28;20022;-51
2022/02/03 21:41:18;;;;;;;5.43;2.08;;;10.40;76.70;;;;;;5041047;28;20049;-50
2022/02/03 21:43:45;;;;;;;5.28;1.70;;;10.40;77.40;;;;;;5041329;28;20364;-51
2022/02/03 21:46:11;;;;;;;5.70;2.72;;;10.40;77.40;;;;;;5041348;28;20025;-51
2022/02/03 21:48:44;;;;;;;5.85;1.90;;;10.30;77.30;;;;;;5040855;28;20025;-52
2022/02/03 21:51:10;;;;;;;8.10;3.05;;;10.30;76.90;;;;;;5040556;28;20061;-51
2022/02/03 21:53:36;;;;;;;3.65;1.52;;;10.30;77.30;;;;;;5040748;28;20029;-51
2022/02/03 21:56:02;;;;;;;2.63;1.50;;;10.40;77.20;;;;;;5040908;28;20100;-55
2022/02/03 21:58:28;;;;;;;4.07;1.80;;;10.30;77.10;;;;;;5040691;28;20026;-55
2022/02/03 22:00:59;;;;;;;5.22;2.55;;;10.30;77.20;;;;;;5040194;28;20481;-54
2022/02/03 22:03:29;;;;;;;6.97;2.35;;;10.30;76.40;;;;;;5038694;28;20024;-52
2022/02/03 22:05:56;;;;;;;3.10;1.50;;;10.30;77.20;;;;;;5038986;28;20424;-54
2022/02/03 22:08:22;;;;;;;5.68;1.52;;;10.30;76.10;;;;;;5040663;28;20025;-51
2022/02/03 22:10:47;;;;;;;3.72;2.08;;;10.30;76.60;;;;;;5040407;28;20454;-52
2022/02/03 22:13:14;;;;;;;5.43;2.60;;;10.30;75.80;;;;;;5040304;28;20018;-49
2022/02/03 22:15:41;;;;;;;8.15;4.15;;;10.30;76.20;;;;;;5038422;28;20017;-54
2022/02/03 22:18:11;;;;;;;6.72;3.17;;;10.20;73.90;;;;;;5038307;28;20036;-52
2022/02/03 22:20:42;;;;;;;6.10;2.63;;;10.20;73.70;;;;;;5038155;28;20104;-53
2022/02/03 22:23:37;;;;;;;3.78;1.77;;;10.20;73.50;;;;;;5038055;28;20060;-53
2022/02/03 22:45:14;;;;;;;4.05;1.83;;;10.20;74.40;;;;;;5040049;28;20025;-52
2022/02/03 22:47:59;;;;;;;5.75;2.22;;;10.20;74.50;;;;;;5039779;28;20425;-50
2022/02/03 22:50:25;;;;;;;2.80;1.60;;;10.20;74.70;;;;;;5039739;28;20026;-49
2022/02/03 22:52:51;;;;;;;3.65;1.50;;;10.20;74.80;;;;;;5039787;28;20052;-52
2022/02/03 22:55:17;;;;;;;3.25;1.95;;;10.20;74.50;;;;;;5039561;28;20113;-51
2022/02/03 22:57:52;;;;;;;4.20;2.42;;;10.20;75.00;;;;;;5039892;28;20025;-52
2022/02/03 23:00:43;;;;;;;5.43;2.70;;;10.20;75.20;;;;;;5039344;28;20481;-52
2022/02/03 23:03:09;;;;;;;5.07;2.08;;;10.20;74.30;;;;;;5039661;28;20025;-49
2022/02/03 23:05:35;;;;;;;6.32;2.92;;;10.20;75.50;;;;;;5039401;28;20025;-54
2022/02/03 23:08:17;;;;;;;5.55;2.55;;;10.30;75.60;;;;;;5039544;28;20036;-49
2022/02/03 23:16:22;;;;;;;5.53;2.30;;;10.30;75.00;;;;;;5039831;28;20499;-49
2022/02/03 23:21:46;;;;;;;2.55;1.30;;;10.30;75.20;;;;;;5038918;28;20060;-54
2022/02/03 23:24:11;;;;;;;3.90;1.67;;;10.30;75.30;;;;;;5039037;28;20040;-51
2022/02/03 23:26:37;;;;;;;4.30;1.90;;;10.30;75.00;;;;;;5039038;28;20377;-53
2022/02/03 23:29:09;;;;;;;4.90;1.90;;;10.30;75.40;;;;;;5039011;28;20057;-52
2022/02/03 23:31:55;;;;;;;2.72;1.00;;;10.30;75.30;;;;;;5038963;28;20045;-49
2022/02/03 23:34:22;;;;;;;3.70;1.17;;;10.30;75.20;;;;;;5039039;28;20034;-48
2022/02/03 23:36:48;;;;;;;2.67;1.30;;;10.30;75.40;;;;;;5038485;28;20021;-50
2022/02/03 23:39:32;;;;;;;3.55;1.10;;;10.40;75.70;;;;;;5039563;28;20074;-51
2022/02/03 23:45:58;;;;;;;2.63;1.10;;;10.30;74.30;;;;;;5056457;28;20029;-53
